Time;durP1;ratioP1;P1;durP2;ratioP2;P2;SDS_P1;SDS_P2;PMS_P1;PMS_P2;Temp;Humidity;BMP_temperature;BMP_pressure;BME280_temperature;BME280_humidity;BME280_pressure;Samples;Min_cycle;Max_cycle;Signal;HPM_P1;HPM_P2
2022/05/03 00:01:32;;;;;;;0.10;0.10;;;6.10;99.90;;;;;;5112165;28;20047;-78
2022/05/03 00:04:09;;;;;;;0.10;0.10;;;6.10;99.90;;;;;;5111552;28;20075;-80
2022/05/03 00:06:56;;;;;;;0.10;0.10;;;6.10;99.90;;;;;;5128074;28;20044;-78
2022/05/03 00:09:46;;;;;;;0.20;0.20;;;6.00;99.90;;;;;;5112588;28;20128;-80
2022/05/03 00:12:19;;;;;;;0.10;0.10;;;6.00;99.90;;;;;;5111177;28;20079;-80
2022/05/03 00:14:52;;;;;;;0.10;0.10;;;5.90;99.90;;;;;;5128306;28;20104;-80
2022/05/03 00:17:22;;;;;;;0.10;0.10;;;5.90;99.90;;;;;;5111003;28;20044;-78
2022/05/03 00:19:49;;;;;;;0.10;0.10;;;5.80;99.90;;;;;;5132837;28;20043;-78
2022/05/03 00:22:17;;;;;;;0.20;0.20;;;5.80;99.90;;;;;;5131494;28;20077;-78
2022/05/03 00:24:44;;;;;;;0.10;0.10;;;5.80;99.90;;;;;;5101921;28;20044;-80
2022/05/03 00:27:14;;;;;;;0.10;0.10;;;5.70;99.90;;;;;;5094677;28;20412;-80
2022/05/03 00:29:41;;;;;;;0.20;0.20;;;5.70;99.90;;;;;;5095785;28;20036;-80
2022/05/03 00:32:08;;;;;;;0.20;0.20;;;5.60;99.90;;;;;;5115116;28;20047;-78
2022/05/03 00:34:36;;;;;;;0.10;0.10;;;5.60;99.90;;;;;;5101890;28;20042;-78
2022/05/03 00:37:03;;;;;;;0.10;0.10;;;5.60;99.90;;;;;;5129625;28;20048;-80
2022/05/03 00:39:30;;;;;;;0.20;0.20;;;5.60;99.90;;;;;;5113486;28;20038;-78
2022/05/03 00:42:14;;;;;;;0.10;0.10;;;5.50;99.90;;;;;;5100988;28;20115;-80
2022/05/03 00:45:00;;;;;;;0.13;0.13;;;5.50;99.90;;;;;;5119119;28;20036;-78
2022/05/03 00:47:46;;;;;;;0.17;0.17;;;5.50;99.90;;;;;;5147725;28;20086;-80
2022/05/03 00:50:39;;;;;;;0.10;0.10;;;5.50;99.90;;;;;;5118529;28;20048;-78
2022/05/03 00:53:42;;;;;;;0.13;0.13;;;5.50;99.90;;;;;;5127335;28;20040;-80
2022/05/03 00:56:33;;;;;;;0.10;0.10;;;5.40;99.90;;;;;;5141006;28;20056;-78
2022/05/03 00:59:30;;;;;;;0.20;0.20;;;5.40;99.90;;;;;;5130377;28;20124;-80
2022/05/03 01:02:04;;;;;;;;;;;5.40;99.90;;;;;;5127254;28;20032;-80
2022/05/03 01:05:10;;;;;;;0.20;0.20;;;5.40;99.90;;;;;;5109502;28;19966;-80
2022/05/03 01:07:52;;;;;;;0.10;0.10;;;5.40;99.90;;;;;;5109263;28;20639;-79
2022/05/03 01:10:28;;;;;;;0.10;0.10;;;5.30;99.90;;;;;;5141399;28;20051;-80
2022/05/03 01:13:08;;;;;;;0.20;0.20;;;5.30;99.90;;;;;;5147603;28;20130;-78
2022/05/03 01:15:39;;;;;;;0.20;0.20;;;5.30;99.90;;;;;;5141568;28;20033;-78
2022/05/03 01:18:21;;;;;;;0.13;0.13;;;5.30;99.90;;;;;;5109716;28;20047;-78
2022/05/03 01:21:26;;;;;;;0.20;0.20;;;5.20;99.90;;;;;;5114269;28;20036;-78
2022/05/03 01:23:59;;;;;;;0.15;0.15;;;5.20;99.90;;;;;;5109829;28;20128;-80
2022/05/03 01:26:53;;;;;;;0.10;0.10;;;5.20;99.90;;;;;;5117186;28;20043;-80
2022/05/03 01:29:34;;;;;;;0.40;0.40;;;5.20;99.90;;;;;;5130341;28;20038;-81
2022/05/03 01:32:12;;;;;;;0.20;0.20;;;5.10;99.90;;;;;;5147160;28;20039;-78
2022/05/03 01:34:44;;;;;;;0.20;0.20;;;5.10;99.90;;;;;;5146724;28;20047;-80
2022/05/03 01:37:26;;;;;;;0.10;0.10;;;5.10;99.90;;;;;;5139279;28;20097;-79
2022/05/03 01:40:29;;;;;;;0.20;0.20;;;5.00;99.90;;;;;;5109255;28;20178;-79
2022/05/03 01:43:11;;;;;;;0.13;0.13;;;5.10;99.90;;;;;;5126419;28;20061;-80
2022/05/03 01:46:18;;;;;;;0.13;0.13;;;5.00;99.90;;;;;;5126124;28;20038;-78
2022/05/03 01:52:22;;;;;;;0.20;0.20;;;5.00;99.90;;;;;;5126864;28;20413;-80
2022/05/03 01:55:31;;;;;;;0.10;0.10;;;5.00;99.90;;;;;;5120933;28;20056;-78
2022/05/03 01:58:07;;;;;;;0.10;0.10;;;5.00;99.90;;;;;;5113320;28;20043;-80
2022/05/03 02:00:34;;;;;;;;;;;5.00;99.90;;;;;;5114370;28;20100;-79
2022/05/03 02:03:25;;;;;;;0.10;0.10;;;5.00;99.90;;;;;;5126672;28;19923;-80
2022/05/03 02:06:04;;;;;;;0.20;0.20;;;5.00;99.90;;;;;;5129223;28;20089;-78
2022/05/03 02:08:51;;;;;;;0.10;0.10;;;5.00;99.90;;;;;;5142927;28;20063;-80
2022/05/03 02:11:54;;;;;;;0.20;0.20;;;5.00;99.90;;;;;;5109327;28;20043;-78
2022/05/03 02:14:49;;;;;;;0.20;0.20;;;4.90;99.90;;;;;;5125684;28;20047;-80
2022/05/03 02:17:38;;;;;;;0.20;0.20;;;4.90;99.90;;;;;;5108845;28;20097;-80
2022/05/03 02:20:08;;;;;;;0.10;0.10;;;4.90;99.90;;;;;;5137091;28;20040;-78
2022/05/03 02:22:47;;;;;;;0.10;0.10;;;4.90;99.90;;;;;;5108741;28;20070;-80
2022/05/03 02:25:21;;;;;;;0.20;0.20;;;4.80;99.90;;;;;;5125896;28;20083;-80
2022/05/03 02:27:59;;;;;;;0.10;0.10;;;4.90;99.90;;;;;;5108672;28;20118;-78
2022/05/03 02:30:28;;;;;;;0.20;0.20;;;4.90;99.90;;;;;;5118240;28;20046;-78
2022/05/03 02:33:27;;;;;;;0.10;0.10;;;4.90;99.90;;;;;;5108420;28;20072;-80
2022/05/03 02:35:58;;;;;;;0.10;0.10;;;4.80;99.90;;;;;;5109204;28;20032;-80
2022/05/03 02:38:50;;;;;;;0.10;0.10;;;4.80;99.90;;;;;;5108709;28;20133;-80
2022/05/03 02:41:19;;;;;;;0.13;0.13;;;4.80;99.90;;;;;;5129105;28;20123;-80
2022/05/03 02:43:47;;;;;;;0.20;0.20;;;4.80;99.90;;;;;;5112355;28;20043;-80
2022/05/03 02:46:17;;;;;;;0.30;0.30;;;4.80;99.90;;;;;;5095876;28;20047;-80
2022/05/03 02:48:55;;;;;;;0.15;0.15;;;4.80;99.90;;;;;;5128918;28;20044;-78
2022/05/03 02:51:35;;;;;;;0.20;0.20;;;4.80;99.90;;;;;;5124968;28;20038;-80
2022/05/03 02:54:34;;;;;;;0.10;0.10;;;4.80;99.90;;;;;;5124738;28;20096;-78
2022/05/03 02:57:15;;;;;;;0.20;0.20;;;4.80;99.90;;;;;;5131689;28;20048;-80
2022/05/03 03:02:53;;;;;;;0.20;0.20;;;5.00;99.90;;;;;;5131287;28;20051;-77
2022/05/03 03:05:23;;;;;;;0.20;0.20;;;4.80;99.90;;;;;;5108269;28;20032;-78
2022/05/03 03:07:57;;;;;;;0.17;0.17;;;4.80;99.90;;;;;;5108203;28;20047;-78
2022/05/03 03:10:38;;;;;;;0.20;0.20;;;4.80;99.90;;;;;;5108604;28;20152;-77
2022/05/03 03:13:42;;;;;;;0.20;0.20;;;4.90;99.90;;;;;;5108766;28;20032;-77
2022/05/03 03:16:13;;;;;;;0.20;0.20;;;4.80;99.90;;;;;;5108502;28;20059;-77
2022/05/03 03:18:46;;;;;;;0.20;0.20;;;4.90;99.90;;;;;;5108366;28;20093;-78
2022/05/03 03:21:14;;;;;;;0.10;0.10;;;4.90;99.90;;;;;;5125279;28;20542;-77
2022/05/03 03:23:41;;;;;;;0.13;0.13;;;5.00;99.90;;;;;;5102037;28;20040;-78
2022/05/03 03:26:10;;;;;;;0.13;0.13;;;5.10;99.90;;;;;;5125128;28;20051;-80
2022/05/03 03:28:37;;;;;;;0.10;0.10;;;5.70;99.90;;;;;;5125252;28;20040;-78
2022/05/03 03:31:06;;;;;;;0.20;0.20;;;5.20;99.90;;;;;;5092857;28;20040;-80
2022/05/03 03:33:35;;;;;;;0.10;0.10;;;5.20;99.90;;;;;;5111514;28;20136;-80
2022/05/03 03:36:03;;;;;;;0.20;0.20;;;5.30;99.90;;;;;;5111354;28;20071;-78
2022/05/03 03:38:40;;;;;;;0.10;0.10;;;5.40;99.90;;;;;;5128323;28;20036;-80
2022/05/03 03:41:08;;;;;;;0.20;0.20;;;5.50;99.90;;;;;;5111426;28;20040;-80
2022/05/03 03:43:35;;;;;;;0.38;0.38;;;5.60;99.90;;;;;;5131037;28;20028;-78
2022/05/03 03:46:02;;;;;;;0.20;0.20;;;5.60;99.90;;;;;;5110735;28;20043;-78
2022/05/03 03:48:29;;;;;;;0.20;0.20;;;5.60;99.90;;;;;;5094481;28;20040;-78
2022/05/03 03:50:57;;;;;;;0.35;0.35;;;6.00;99.90;;;;;;5094183;28;20050;-77
2022/05/03 03:53:25;;;;;;;0.10;0.10;;;5.80;99.90;;;;;;5107663;28;20438;-80
2022/05/03 03:55:52;;;;;;;0.17;0.17;;;5.70;99.90;;;;;;5110378;28;20135;-78
2022/05/03 03:58:19;;;;;;;0.20;0.20;;;5.80;99.90;;;;;;5110817;28;20043;-80
2022/05/03 04:00:49;;;;;;;0.10;0.10;;;5.80;99.90;;;;;;5111214;28;20032;-78
2022/05/03 04:03:16;;;;;;;0.20;0.20;;;5.80;99.90;;;;;;5120804;28;20035;-77
2022/05/03 04:05:44;;;;;;;0.20;0.20;;;5.80;99.90;;;;;;5100472;28;20042;-80
2022/05/03 04:08:11;;;;;;;0.20;0.20;;;5.80;99.90;;;;;;5110825;28;20126;-80
2022/05/03 04:10:38;;;;;;;0.17;0.17;;;5.80;99.90;;;;;;5127521;28;20127;-80
2022/05/03 04:13:05;;;;;;;0.15;0.15;;;5.80;99.90;;;;;;5116794;28;20040;-80
2022/05/03 04:15:34;;;;;;;0.20;0.20;;;5.80;99.90;;;;;;5131327;28;20431;-78
2022/05/03 04:18:06;;;;;;;0.10;0.10;;;5.90;99.90;;;;;;5110678;28;20043;-79
2022/05/03 04:20:34;;;;;;;0.10;0.10;;;6.00;99.90;;;;;;5119132;28;20477;-80
2022/05/03 04:23:01;;;;;;;0.10;0.10;;;6.00;99.90;;;;;;5077714;28;20036;-77
2022/05/03 04:25:28;;;;;;;0.10;0.10;;;6.10;99.90;;;;;;5112201;28;20032;-78
2022/05/03 04:27:55;;;;;;;0.10;0.10;;;6.10;99.90;;;;;;5110537;28;20040;-78
2022/05/03 04:30:21;;;;;;;0.10;0.10;;;6.30;99.90;;;;;;5110501;28;20048;-78
2022/05/03 04:32:48;;;;;;;0.10;0.10;;;6.20;99.90;;;;;;5093323;28;20040;-80
2022/05/03 04:35:15;;;;;;;0.13;0.13;;;6.40;99.90;;;;;;5101299;28;20048;-79
2022/05/03 04:37:41;;;;;;;0.20;0.20;;;6.40;99.90;;;;;;5090806;28;20058;-78
2022/05/03 04:40:09;;;;;;;0.30;0.30;;;6.80;99.90;;;;;;5110165;28;20774;-78
2022/05/03 04:42:35;;;;;;;0.10;0.10;;;6.50;99.90;;;;;;5109899;28;20051;-80
2022/05/03 04:45:02;;;;;;;0.20;0.20;;;6.60;99.90;;;;;;5109190;28;20492;-80
2022/05/03 04:47:29;;;;;;;0.20;0.20;;;6.70;99.90;;;;;;5108418;28;20420;-79
2022/05/03 04:49:56;;;;;;;0.20;0.20;;;6.80;99.90;;;;;;5103009;28;20056;-80
2022/05/03 04:52:22;;;;;;;0.10;0.10;;;6.90;99.90;;;;;;5093804;28;20400;-78
2022/05/03 04:54:49;;;;;;;0.10;0.10;;;6.90;99.90;;;;;;5109855;28;20086;-78
2022/05/03 04:57:16;;;;;;;0.20;0.20;;;7.00;99.90;;;;;;5110042;28;20044;-77
2022/05/03 04:59:42;;;;;;;0.10;0.10;;;7.00;99.90;;;;;;5104977;28;20497;-78
2022/05/03 05:02:09;;;;;;;0.20;0.20;;;7.40;99.90;;;;;;5105098;28;20066;-79
2022/05/03 05:04:36;;;;;;;0.10;0.10;;;7.70;99.90;;;;;;5093400;28;20059;-80
2022/05/03 05:07:03;;;;;;;0.10;0.10;;;7.70;99.90;;;;;;5096438;28;20476;-77
2022/05/03 05:09:30;;;;;;;0.10;0.10;;;7.20;99.90;;;;;;5117527;28;20487;-78
2022/05/03 05:11:57;;;;;;;0.13;0.13;;;7.30;99.90;;;;;;5122778;27;20035;-77
2022/05/03 05:14:24;;;;;;;0.10;0.10;;;7.30;99.90;;;;;;5104826;28;20040;-78
2022/05/03 05:16:50;;;;;;;0.40;0.20;;;7.30;99.90;;;;;;5121583;28;20057;-80
2022/05/03 05:19:17;;;;;;;0.13;0.13;;;7.40;99.90;;;;;;5101741;28;20038;-80
2022/05/03 05:21:44;;;;;;;0.10;0.10;;;7.40;99.90;;;;;;5133833;28;20833;-77
2022/05/03 05:24:11;;;;;;;0.10;0.10;;;7.50;99.90;;;;;;5108285;28;20047;-78
2022/05/03 05:26:39;;;;;;;0.10;0.10;;;7.50;99.90;;;;;;5105865;28;20050;-80
2022/05/03 05:29:06;;;;;;;0.10;0.10;;;7.50;99.90;;;;;;5103614;28;20085;-79
2022/05/03 05:31:33;;;;;;;0.30;0.30;;;7.60;99.90;;;;;;5116977;28;20039;-80
2022/05/03 05:33:59;;;;;;;0.10;0.10;;;7.60;99.90;;;;;;5118945;28;20051;-78
2022/05/03 05:36:27;;;;;;;0.30;0.30;;;7.60;99.90;;;;;;5082467;28;20036;-80
2022/05/03 05:38:53;;;;;;;0.15;0.15;;;7.70;99.90;;;;;;5101411;28;20040;-78
2022/05/03 05:41:20;;;;;;;0.10;0.10;;;7.70;99.90;;;;;;5135074;28;20108;-79
2022/05/03 05:43:47;;;;;;;0.10;0.10;;;7.80;99.90;;;;;;5135464;28;20039;-80
2022/05/03 05:46:14;;;;;;;0.10;0.10;;;7.80;99.90;;;;;;5115807;28;20504;-78
2022/05/03 05:48:41;;;;;;;0.13;0.13;;;7.90;99.90;;;;;;5101681;28;20109;-79
2022/05/03 05:51:08;;;;;;;0.10;0.10;;;7.90;99.90;;;;;;5101779;28;20050;-79
2022/05/03 05:53:34;;;;;;;0.10;0.10;;;7.90;99.90;;;;;;5112566;28;20044;-77
2022/05/03 05:56:03;;;;;;;0.10;0.10;;;8.00;99.90;;;;;;5117043;28;20048;-80
2022/05/03 05:58:31;;;;;;;0.10;0.10;;;8.00;99.90;;;;;;5117351;28;20028;-80
2022/05/03 06:00:58;;;;;;;3.08;0.40;;;8.10;99.90;;;;;;5119799;28;20449;-79
2022/05/03 06:03:27;;;;;;;0.10;0.10;;;8.30;99.90;;;;;;5118317;28;20040;-78
2022/05/03 06:05:54;;;;;;;0.10;0.10;;;8.20;99.90;;;;;;5109636;28;20036;-78
2022/05/03 06:08:21;;;;;;;0.35;0.35;;;8.20;99.90;;;;;;5103899;28;20111;-78
2022/05/03 06:10:49;;;;;;;0.10;0.10;;;8.30;99.90;;;;;;5086807;28;20177;-78
2022/05/03 06:13:16;;;;;;;0.10;0.10;;;8.30;99.90;;;;;;5107920;28;20043;-78
2022/05/03 06:15:43;;;;;;;0.10;0.10;;;8.30;99.90;;;;;;5131927;28;20052;-79
2022/05/03 06:18:10;;;;;;;0.10;0.10;;;8.40;99.90;;;;;;5130744;28;20039;-78
2022/05/03 06:20:37;;;;;;;0.10;0.10;;;8.40;99.90;;;;;;5113975;28;20043;-78
2022/05/03 06:23:04;;;;;;;0.10;0.10;;;8.50;99.90;;;;;;5093983;28;20486;-80
2022/05/03 06:25:31;;;;;;;0.10;0.10;;;8.50;99.90;;;;;;5122609;28;20036;-78
2022/05/03 06:27:58;;;;;;;0.10;0.10;;;8.50;99.90;;;;;;5102395;28;20412;-79
2022/05/03 06:30:24;;;;;;;0.10;0.10;;;8.60;99.90;;;;;;5116199;28;20089;-78
2022/05/03 06:32:51;;;;;;;0.10;0.10;;;8.60;99.90;;;;;;5102995;28;20040;-78
2022/05/03 06:35:19;;;;;;;0.10;0.10;;;8.70;99.90;;;;;;5134942;28;20036;-80
2022/05/03 06:37:46;;;;;;;0.10;0.10;;;8.60;99.90;;;;;;5089952;28;20036;-80
2022/05/03 06:40:12;;;;;;;0.30;0.30;;;8.70;99.90;;;;;;5108154;28;20040;-80
2022/05/03 06:42:40;;;;;;;0.10;0.10;;;8.70;99.90;;;;;;5108553;28;20039;-80
2022/05/03 06:45:10;;;;;;;0.10;0.10;;;8.70;99.90;;;;;;5119102;28;20126;-80
2022/05/03 06:47:38;;;;;;;0.10;0.10;;;8.70;99.90;;;;;;5108954;28;20406;-82
2022/05/03 06:50:06;;;;;;;0.10;0.10;;;8.70;99.90;;;;;;5092486;28;20036;-80
2022/05/03 06:52:33;;;;;;;0.10;0.10;;;8.80;99.90;;;;;;5098179;28;20079;-81
2022/05/03 06:55:00;;;;;;;0.00;0.00;;;8.80;99.90;;;;;;5107498;28;20056;-82
2022/05/03 06:57:28;;;;;;;0.10;0.10;;;8.90;99.90;;;;;;5113518;28;20135;-80
2022/05/03 06:59:56;;;;;;;2.92;1.27;;;8.90;99.90;;;;;;5118379;28;20036;-86
2022/05/03 07:02:23;;;;;;;0.47;0.30;;;8.90;99.90;;;;;;5107990;28;20032;-84
2022/05/03 07:04:49;;;;;;;0.10;0.10;;;9.00;99.90;;;;;;5103082;28;20047;-85
2022/05/03 07:07:16;;;;;;;0.10;0.10;;;8.90;99.90;;;;;;5090698;28;20051;-85
2022/05/03 07:09:43;;;;;;;0.10;0.10;;;8.90;99.90;;;;;;5100088;28;20040;-80
2022/05/03 07:12:11;;;;;;;0.10;0.10;;;8.90;99.90;;;;;;5106796;28;20722;-88
2022/05/03 07:14:38;;;;;;;0.10;0.10;;;8.90;99.90;;;;;;5098656;28;20040;-87
2022/05/03 07:17:05;;;;;;;0.10;0.10;;;8.90;99.90;;;;;;5113370;28;20036;-85
2022/05/03 07:25:03;;;;;;;0.20;0.20;;;8.90;99.90;;;;;;5139732;28;20044;-84
2022/05/03 07:27:36;;;;;;;0.10;0.10;;;8.90;99.90;;;;;;5096584;28;20047;-84
2022/05/03 07:30:04;;;;;;;0.10;0.10;;;8.90;99.90;;;;;;5113514;28;20036;-83
2022/05/03 07:32:30;;;;;;;0.10;0.10;;;8.90;99.90;;;;;;5112957;28;20492;-88
2022/05/03 07:34:57;;;;;;;0.10;0.10;;;8.90;99.90;;;;;;5103680;28;20047;-83
2022/05/03 07:37:24;;;;;;;0.10;0.10;;;8.90;99.90;;;;;;5086846;28;20047;-83
2022/05/03 07:39:50;;;;;;;0.10;0.10;;;9.10;99.90;;;;;;5079708;28;20032;-83
2022/05/03 07:42:17;;;;;;;0.10;0.10;;;9.00;99.90;;;;;;5118206;28;20455;-83
2022/05/03 07:44:44;;;;;;;0.10;0.10;;;9.10;99.90;;;;;;5104998;28;20043;-88
2022/05/03 07:47:11;;;;;;;0.10;0.10;;;9.10;99.90;;;;;;5080421;28;20070;-88
2022/05/03 07:49:37;;;;;;;0.10;0.10;;;9.10;99.90;;;;;;5106359;28;20075;-83
2022/05/03 07:52:07;;;;;;;0.10;0.10;;;9.10;99.90;;;;;;5084045;28;20047;-87
2022/05/03 07:54:34;;;;;;;0.10;0.10;;;9.10;99.90;;;;;;5122102;28;20040;-88
2022/05/03 07:57:02;;;;;;;0.10;0.10;;;9.10;99.90;;;;;;5106740;28;20054;-84
2022/05/03 07:59:29;;;;;;;0.10;0.10;;;9.20;99.90;;;;;;5116066;28;20702;-88
2022/05/03 08:01:56;;;;;;;0.10;0.10;;;9.30;99.90;;;;;;5132075;28;20078;-88
2022/05/03 08:04:22;;;;;;;0.08;0.08;;;9.40;99.90;;;;;;5112286;28;20036;-83
2022/05/03 08:06:50;;;;;;;0.10;0.10;;;9.40;99.90;;;;;;5080247;28;20044;-87
2022/05/03 08:09:17;;;;;;;0.10;0.10;;;9.50;99.90;;;;;;5111016;28;20039;-87
2022/05/03 08:11:43;;;;;;;0.10;0.10;;;9.50;99.90;;;;;;5132523;28;20510;-83
2022/05/03 08:14:10;;;;;;;0.10;0.10;;;9.50;99.90;;;;;;5118620;28;20400;-87
2022/05/03 08:16:38;;;;;;;0.10;0.10;;;9.10;99.90;;;;;;5110742;28;20432;-83
2022/05/03 08:19:05;;;;;;;0.10;0.10;;;9.60;99.90;;;;;;5106511;28;20036;-87
2022/05/03 08:21:35;;;;;;;0.10;0.10;;;9.70;99.90;;;;;;5133044;28;20040;-87
2022/05/03 08:24:04;;;;;;;0.10;0.10;;;9.70;99.90;;;;;;5112481;28;20032;-87
2022/05/03 08:26:33;;;;;;;0.10;0.10;;;9.60;99.90;;;;;;5101592;28;20051;-83
2022/05/03 08:29:00;;;;;;;0.10;0.10;;;9.70;99.90;;;;;;5111797;28;20044;-83
2022/05/03 08:31:27;;;;;;;0.10;0.10;;;9.70;99.90;;;;;;5097116;28;20047;-87
2022/05/03 08:33:53;;;;;;;0.10;0.10;;;9.60;99.90;;;;;;5120470;28;20040;-87
2022/05/03 08:36:21;;;;;;;0.08;0.08;;;9.70;99.90;;;;;;5107025;28;20527;-87
2022/05/03 08:44:33;;;;;;;0.00;0.00;;;9.90;99.90;;;;;;5113794;28;20044;-86
2022/05/03 08:47:02;;;;;;;0.10;0.10;;;10.00;99.90;;;;;;5094552;28;20121;-87
2022/05/03 08:50:01;;;;;;;0.08;0.08;;;10.00;99.90;;;;;;5145501;28;20049;-87
2022/05/03 08:52:33;;;;;;;0.00;0.00;;;10.00;99.90;;;;;;5123317;28;20738;-82
2022/05/03 08:55:01;;;;;;;0.10;0.10;;;10.10;99.90;;;;;;5115563;28;20099;-82
2022/05/03 08:57:28;;;;;;;0.10;0.10;;;10.10;99.90;;;;;;5101235;28;20036;-82
2022/05/03 08:59:56;;;;;;;0.10;0.10;;;10.20;99.90;;;;;;5104762;28;20421;-86
2022/05/03 09:02:24;;;;;;;0.10;0.10;;;10.30;99.90;;;;;;5110559;28;20835;-86
2022/05/03 09:04:50;;;;;;;0.10;0.10;;;10.30;99.90;;;;;;5094710;28;20036;-82
2022/05/03 09:07:23;;;;;;;0.10;0.10;;;10.40;99.90;;;;;;5111669;28;20419;-82
2022/05/03 09:09:52;;;;;;;0.10;0.10;;;10.40;99.90;;;;;;5130185;28;20652;-82
2022/05/03 09:12:27;;;;;;;0.10;0.10;;;10.40;99.90;;;;;;5112291;28;20086;-82
2022/05/03 09:15:01;;;;;;;0.10;0.10;;;10.60;99.90;;;;;;5120811;28;20043;-87
2022/05/03 09:17:43;;;;;;;0.10;0.10;;;10.60;99.90;;;;;;5119703;28;20035;-86
2022/05/03 09:26:12;;;;;;;0.10;0.10;;;10.80;99.90;;;;;;5135249;28;20480;-82
2022/05/03 09:28:47;;;;;;;0.10;0.10;;;10.80;99.90;;;;;;5130478;28;20510;-87
2022/05/03 09:31:27;;;;;;;0.20;0.20;;;10.80;99.90;;;;;;5111526;28;20047;-86
2022/05/03 09:33:55;;;;;;;0.10;0.10;;;10.80;99.90;;;;;;5117485;28;20082;-82
2022/05/03 09:36:22;;;;;;;0.10;0.10;;;10.80;99.90;;;;;;5094555;28;20133;-82
2022/05/03 09:38:53;;;;;;;0.00;0.00;;;10.80;99.90;;;;;;5111984;28;20035;-86
2022/05/03 09:41:20;;;;;;;0.00;0.00;;;10.80;99.90;;;;;;5120792;28;20504;-82
2022/05/03 09:44:04;;;;;;;0.10;0.10;;;10.80;99.90;;;;;;5104336;28;20035;-86
2022/05/03 09:46:54;;;;;;;0.00;0.00;;;10.70;99.90;;;;;;5120562;28;20126;-83
2022/05/03 09:49:35;;;;;;;0.10;0.10;;;10.80;99.90;;;;;;5138691;28;20047;-82
2022/05/03 09:52:03;;;;;;;0.10;0.10;;;10.80;99.90;;;;;;5112578;28;20040;-82
2022/05/03 09:54:49;;;;;;;0.10;0.10;;;10.90;99.90;;;;;;5115272;28;20043;-83
2022/05/03 09:57:24;;;;;;;0.10;0.10;;;11.00;99.90;;;;;;5129123;28;20134;-86
2022/05/03 09:59:54;;;;;;;0.08;0.08;;;11.00;99.90;;;;;;5123212;28;20044;-85
2022/05/03 10:02:23;;;;;;;0.10;0.10;;;11.20;99.90;;;;;;5129651;28;20059;-86
2022/05/03 10:04:53;;;;;;;0.10;0.10;;;11.20;99.90;;;;;;5099944;28;20066;-86
2022/05/03 10:07:20;;;;;;;0.10;0.10;;;11.20;99.90;;;;;;5110086;28;20044;-82
2022/05/03 10:09:47;;;;;;;0.10;0.10;;;11.30;99.90;;;;;;5110628;28;20040;-82
2022/05/03 10:12:14;;;;;;;0.05;0.05;;;11.40;99.90;;;;;;5096499;28;20122;-86
2022/05/03 10:14:42;;;;;;;0.10;0.10;;;11.30;99.90;;;;;;5129915;28;20488;-82
2022/05/03 10:20:40;;;;;;;0.10;0.10;;;11.40;99.90;;;;;;5136442;28;20040;-83
2022/05/03 10:23:21;;;;;;;0.00;0.00;;;11.40;99.90;;;;;;5110042;28;20557;-82
2022/05/03 10:25:48;;;;;;;0.05;0.05;;;11.50;99.90;;;;;;5109262;28;20044;-86
2022/05/03 10:28:15;;;;;;;0.10;0.10;;;11.60;99.90;;;;;;5109930;28;20090;-86
2022/05/03 10:31:06;;;;;;;0.10;0.10;;;11.60;99.90;;;;;;5109404;28;20446;-82
2022/05/03 10:33:35;;;;;;;0.00;0.00;;;11.70;99.90;;;;;;5109441;28;20513;-83
2022/05/03 10:36:23;;;;;;;0.10;0.10;;;11.80;99.90;;;;;;5109315;28;20412;-82
2022/05/03 10:38:50;;;;;;;0.00;0.00;;;11.80;99.90;;;;;;5095642;28;20128;-82
2022/05/03 10:41:24;;;;;;;0.10;0.10;;;12.00;99.90;;;;;;5118066;28;20085;-83
2022/05/03 10:43:51;;;;;;;0.10;0.10;;;12.10;99.90;;;;;;5121159;28;20043;-83
2022/05/03 10:46:22;;;;;;;0.05;0.05;;;12.10;99.90;;;;;;5087375;28;20051;-83
2022/05/03 10:49:15;;;;;;;0.00;0.00;;;12.20;99.90;;;;;;5106895;28;20104;-82
2022/05/03 10:51:42;;;;;;;7.38;0.50;;;12.20;99.90;;;;;;5116096;28;20127;-86
2022/05/03 10:54:09;;;;;;;0.10;0.10;;;12.20;99.90;;;;;;5116933;28;20043;-83
2022/05/03 10:57:07;;;;;;;0.20;0.10;;;12.30;99.90;;;;;;5114268;28;20048;-87
2022/05/03 10:59:48;;;;;;;0.10;0.10;;;12.40;99.90;;;;;;5131779;28;20043;-86
2022/05/03 11:02:15;;;;;;;0.10;0.10;;;12.50;99.90;;;;;;5133948;28;20031;-87
2022/05/03 11:05:16;;;;;;;0.10;0.10;;;12.70;99.90;;;;;;5123030;28;20027;-86
2022/05/03 11:08:15;;;;;;;0.00;0.00;;;12.60;99.90;;;;;;5113331;28;20587;-86
2022/05/03 11:10:43;;;;;;;0.00;0.00;;;12.80;99.90;;;;;;5108089;28;20043;-84
2022/05/03 11:13:38;;;;;;;0.00;0.00;;;12.70;99.90;;;;;;5110967;28;20122;-87
2022/05/03 11:16:25;;;;;;;0.00;0.00;;;12.70;99.90;;;;;;5132990;28;20082;-83
2022/05/03 11:18:53;;;;;;;0.10;0.10;;;12.90;99.90;;;;;;5130853;28;20557;-83
2022/05/03 11:21:23;;;;;;;0.00;0.00;;;12.90;99.90;;;;;;5107202;28;20459;-82
2022/05/03 11:23:51;;;;;;;0.00;0.00;;;12.80;99.90;;;;;;5096422;28;20055;-86
2022/05/03 11:26:24;;;;;;;0.00;0.00;;;12.80;99.90;;;;;;5124093;28;20050;-87
2022/05/03 11:28:52;;;;;;;0.00;0.00;;;12.90;99.90;;;;;;5138778;28;20406;-83
2022/05/03 11:31:25;;;;;;;0.00;0.00;;;12.90;99.90;;;;;;5113851;28;20051;-83
2022/05/03 11:33:55;;;;;;;0.00;0.00;;;12.80;99.90;;;;;;5112666;28;20039;-83
2022/05/03 11:36:23;;;;;;;0.00;0.00;;;12.70;99.90;;;;;;5107613;28;20043;-87
2022/05/03 11:38:50;;;;;;;0.00;0.00;;;12.90;99.90;;;;;;5085603;28;20046;-83
2022/05/03 11:41:21;;;;;;;0.00;0.00;;;13.00;99.90;;;;;;5101094;28;20074;-87
2022/05/03 11:43:48;;;;;;;0.00;0.00;;;13.30;99.90;;;;;;5117629;28;20047;-87
2022/05/03 11:46:16;;;;;;;0.13;0.13;;;13.40;99.90;;;;;;5121313;28;20240;-88
2022/05/03 11:48:44;;;;;;;0.10;0.10;;;13.50;99.90;;;;;;5096750;28;20044;-87
2022/05/03 11:56:46;;;;;;;0.00;0.00;;;13.50;99.90;;;;;;5137614;28;20047;-84
2022/05/03 11:59:14;;;;;;;0.00;0.00;;;13.70;99.90;;;;;;5107257;28;20097;-83
2022/05/03 12:01:41;;;;;;;0.00;0.00;;;13.50;99.90;;;;;;5104074;28;20036;-83
2022/05/03 12:04:08;;;;;;;0.00;0.00;;;13.40;99.90;;;;;;5079806;28;20047;-87
2022/05/03 12:06:43;;;;;;;0.00;0.00;;;13.40;99.90;;;;;;5099232;28;20497;-83
2022/05/03 12:09:18;;;;;;;0.00;0.00;;;13.30;99.90;;;;;;5148070;28;20055;-87
2022/05/03 12:14:43;;;;;;;0.00;0.00;;;13.30;99.90;;;;;;5142078;28;20044;-86
2022/05/03 12:17:11;;;;;;;0.00;0.00;;;13.40;99.90;;;;;;5091476;28;20044;-83
2022/05/03 12:19:38;;;;;;;0.13;0.10;;;13.40;99.90;;;;;;5096884;28;20074;-84
2022/05/03 12:22:13;;;;;;;0.00;0.00;;;13.50;99.90;;;;;;5111721;28;20401;-88
2022/05/03 12:24:41;;;;;;;0.10;0.10;;;13.50;99.90;;;;;;5144232;28;20031;-84
2022/05/03 12:27:13;;;;;;;0.20;0.10;;;13.50;99.90;;;;;;5132151;28;20044;-83
2022/05/03 12:29:45;;;;;;;0.00;0.00;;;13.30;99.90;;;;;;5105590;28;20050;-84
2022/05/03 12:32:14;;;;;;;0.00;0.00;;;13.20;99.90;;;;;;5115588;28;20528;-88
2022/05/03 12:34:53;;;;;;;0.00;0.00;;;13.10;99.90;;;;;;5121555;28;20404;-84
2022/05/03 12:37:20;;;;;;;0.20;0.20;;;13.10;99.90;;;;;;5118792;28;20446;-83
2022/05/03 12:39:47;;;;;;;0.00;0.00;;;13.30;99.90;;;;;;5110462;28;20032;-88
2022/05/03 12:42:15;;;;;;;0.00;0.00;;;13.30;99.90;;;;;;5090085;28;20040;-87
2022/05/03 12:44:54;;;;;;;0.00;0.00;;;13.20;99.90;;;;;;5112012;28;20552;-88
2022/05/03 12:47:23;;;;;;;0.00;0.00;;;13.40;99.90;;;;;;5111895;28;20036;-83
2022/05/03 12:49:50;;;;;;;0.00;0.00;;;13.70;99.90;;;;;;5107405;28;20116;-83
2022/05/03 12:52:16;;;;;;;0.00;0.00;;;13.70;99.90;;;;;;5091156;28;20039;-90
2022/05/03 12:54:44;;;;;;;0.00;0.00;;;13.60;99.90;;;;;;5102997;28;20488;-85
2022/05/03 12:59:57;;;;;;;;;;;13.80;99.90;;;;;;5113395;28;20412;-88
2022/05/03 13:02:24;;;;;;;0.00;0.00;;;13.90;99.90;;;;;;5119607;28;19923;-86
2022/05/03 13:04:51;;;;;;;0.00;0.00;;;13.90;99.90;;;;;;5111466;28;20039;-84
2022/05/03 13:07:18;;;;;;;0.00;0.00;;;14.00;99.90;;;;;;5111209;28;20788;-83
2022/05/03 13:09:45;;;;;;;0.00;0.00;;;13.80;99.90;;;;;;5098404;28;20622;-89
2022/05/03 13:12:11;;;;;;;0.00;0.00;;;13.50;99.90;;;;;;5090322;28;20131;-84
2022/05/03 13:14:39;;;;;;;0.00;0.00;;;13.20;99.90;;;;;;5109336;28;20036;-89
2022/05/03 13:17:05;;;;;;;0.00;0.00;;;13.10;99.90;;;;;;5104918;28;20032;-91
2022/05/03 13:19:32;;;;;;;0.00;0.00;;;13.10;99.90;;;;;;5115679;28;20062;-88
2022/05/03 13:22:00;;;;;;;0.00;0.00;;;13.10;99.90;;;;;;5094366;28;20051;-91
2022/05/03 13:24:27;;;;;;;0.05;0.05;;;13.00;99.90;;;;;;5104777;28;20029;-92
2022/05/03 13:26:54;;;;;;;0.00;0.00;;;12.80;99.90;;;;;;5103481;28;20477;-87
2022/05/03 13:29:22;;;;;;;0.00;0.00;;;12.80;99.90;;;;;;5111423;28;20044;-91
2022/05/03 13:31:49;;;;;;;0.00;0.00;;;12.70;99.90;;;;;;5107545;28;20067;-91
2022/05/03 13:34:16;;;;;;;0.00;0.00;;;12.80;99.90;;;;;;5095103;28;20035;-87
2022/05/03 13:42:13;;;;;;;0.00;0.00;;;12.80;99.90;;;;;;5113541;28;20039;-91
2022/05/03 13:44:41;;;;;;;0.00;0.00;;;12.80;99.90;;;;;;5107199;28;20073;-86
2022/05/03 13:47:12;;;;;;;0.10;0.10;;;12.70;99.90;;;;;;5124903;28;20047;-87
2022/05/03 13:49:39;;;;;;;0.00;0.00;;;12.60;99.90;;;;;;5120829;28;20035;-87
2022/05/03 13:52:09;;;;;;;0.00;0.00;;;12.50;99.90;;;;;;5111197;28;21067;-87
2022/05/03 13:54:36;;;;;;;0.10;0.10;;;12.40;99.90;;;;;;5108410;28;20036;-91
2022/05/03 13:57:03;;;;;;;0.00;0.00;;;12.50;99.90;;;;;;5114608;28;20484;-90
2022/05/03 13:59:30;;;;;;;0.10;0.10;;;12.50;99.90;;;;;;5114904;28;20043;-91
2022/05/03 14:01:56;;;;;;;0.00;0.00;;;12.50;99.90;;;;;;5110024;28;20065;-90